Lacanau — FNKK — position and weather

sailwx.info

Track history (hours):
 
Tides and Currents Weather Stations Pressure Air Temp Water Temp Dewpoint Dewpoint Depression Visibility Wind Speed Wind Dir Waves Ship Positions

Lacanau

Last reported at 2018-Jan-03 13:35 UTC. Time now 2018-Jan-19 01:17 UTC.
Position N 16°08' W 063°46'.
Warning: this ship's position is 15 days out of date.

Length 119 m; draft 4.9 m.

MMSI: 228330800.

Date/timePositionNaut miles runAvg speedWind from/ knotsBaromVisibWave heightAir tempDewpointWater temp
2018-Jan-03 13:35N 16°08' W 063°46'213.1
2018-Jan-03 13:27N 16°07' W 063°45'  
2017-Dec-28 02:41N 14°39' W 061°26'511.9
2017-Dec-28 02:14N 14°44' W 061°26'82 9.8
2017-Dec-27 17:51N 16°06' W 061°29'4 9.8
2017-Dec-27 17:29N 16°10' W 061°31'4 9.0
2017-Dec-27 16:59N 16°14' W 061°32'1 0.1
2017-Dec-27 11:57N 16°14' W 061°33'0 0.0
2017-Dec-27 08:15N 16°14' W 061°33'0 0.0
2017-Dec-27 07:48N 16°14' W 061°33'0 0.0
2017-Dec-27 07:30N 16°14' W 061°33'0 0.0
2017-Dec-27 06:57N 16°14' W 061°33'0 0.0
2017-Dec-26 17:57N 16°14' W 061°33'0 0.0
2017-Dec-26 17:03N 16°14' W 061°33'0 0.0
2017-Dec-26 13:48N 16°14' W 061°33'0 0.0
2017-Dec-26 13:24N 16°14' W 061°33'0 0.0
2017-Dec-26 10:32N 16°14' W 061°33'0 1.0
2017-Dec-26 10:26N 16°14' W 061°33'2 1.5
2017-Dec-26 09:21N 16°13' W 061°32'0 0.0
2017-Dec-26 08:45N 16°13' W 061°32'0 0.0
2017-Dec-26 08:21N 16°13' W 061°32'0 0.0
2017-Dec-26 01:06N 16°13' W 061°32'0 0.0
2017-Dec-25 13:03N 16°12' W 061°32'0 0.5
2017-Dec-25 13:01N 16°12' W 061°32'2 3.5
2017-Dec-25 12:31N 16°11' W 061°31'3 6.4
2017-Dec-25 11:59N 16°08' W 061°30'  
Track history (hours):
 
Tides and Currents Weather Stations Pressure Air Temp Water Temp Dewpoint Dewpoint Depression Visibility Wind Speed Wind Dir Waves Ship Positions

Lacanau

Last reported at 2018-Jan-03 13:35 UTC. Time now 2018-Jan-19 01:17 UTC.
Position N 16°08' W 063°46'.
Warning: this ship's position is 15 days out of date.

Length 119 m; draft 4.9 m.

MMSI: 228330800.

Date/timePositionNaut miles runAvg speedWind from/ knotsBaromVisibWave heightAir tempDewpointWater temp
2018-Jan-03 13:35N 16°08' W 063°46'213.1
2018-Jan-03 13:27N 16°07' W 063°45'  
2017-Dec-28 02:41N 14°39' W 061°26'511.9
2017-Dec-28 02:14N 14°44' W 061°26'82 9.8
2017-Dec-27 17:51N 16°06' W 061°29'4 9.8
2017-Dec-27 17:29N 16°10' W 061°31'4 9.0
2017-Dec-27 16:59N 16°14' W 061°32'1 0.1
2017-Dec-27 11:57N 16°14' W 061°33'0 0.0
2017-Dec-27 08:15N 16°14' W 061°33'0 0.0
2017-Dec-27 07:48N 16°14' W 061°33'0 0.0
2017-Dec-27 07:30N 16°14' W 061°33'0 0.0
2017-Dec-27 06:57N 16°14' W 061°33'0 0.0
2017-Dec-26 17:57N 16°14' W 061°33'0 0.0
2017-Dec-26 17:03N 16°14' W 061°33'0 0.0
2017-Dec-26 13:48N 16°14' W 061°33'0 0.0
2017-Dec-26 13:24N 16°14' W 061°33'0 0.0
2017-Dec-26 10:32N 16°14' W 061°33'0 1.0
2017-Dec-26 10:26N 16°14' W 061°33'2 1.5
2017-Dec-26 09:21N 16°13' W 061°32'0 0.0
2017-Dec-26 08:45N 16°13' W 061°32'0 0.0
2017-Dec-26 08:21N 16°13' W 061°32'0 0.0
2017-Dec-26 01:06N 16°13' W 061°32'0 0.0
2017-Dec-25 13:03N 16°12' W 061°32'0 0.5
2017-Dec-25 13:01N 16°12' W 061°32'2 3.5
2017-Dec-25 12:31N 16°11' W 061°31'3 6.4
2017-Dec-25 11:59N 16°08' W 061°30'  

Dump ship's entire track history